sensor_id;sensor_type;location;lat;lon;timestamp;P1;durP1;ratioP1;P2;durP2;ratioP2
75890;SDS011;64571;47.512;19.054;2023-09-19T00:00:28;11.30;;;5.57;;
75890;SDS011;64571;47.512;19.054;2023-09-19T00:03:30;11.70;;;5.27;;
75890;SDS011;64571;47.512;19.054;2023-09-19T00:06:33;10.57;;;5.70;;
75890;SDS011;64571;47.512;19.054;2023-09-19T00:09:36;10.02;;;5.85;;
75890;SDS011;64571;47.512;19.054;2023-09-19T00:12:42;11.75;;;5.53;;
75890;SDS011;64571;47.512;19.054;2023-09-19T00:15:46;12.30;;;5.78;;
75890;SDS011;64571;47.512;19.054;2023-09-19T00:18:53;18.50;;;5.97;;
75890;SDS011;64571;47.512;19.054;2023-09-19T00:21:55;12.70;;;6.22;;
75890;SDS011;64571;47.512;19.054;2023-09-19T00:24:58;10.55;;;6.03;;
75890;SDS011;64571;47.512;19.054;2023-09-19T00:28:01;12.63;;;5.95;;
75890;SDS011;64571;47.512;19.054;2023-09-19T00:31:03;14.57;;;6.00;;
75890;SDS011;64571;47.512;19.054;2023-09-19T00:34:07;13.03;;;5.97;;
75890;SDS011;64571;47.512;19.054;2023-09-19T00:37:12;10.00;;;5.47;;
75890;SDS011;64571;47.512;19.054;2023-09-19T00:40:15;13.55;;;6.65;;
75890;SDS011;64571;47.512;19.054;2023-09-19T00:43:19;11.95;;;5.72;;
75890;SDS011;64571;47.512;19.054;2023-09-19T00:46:22;10.80;;;5.95;;
75890;SDS011;64571;47.512;19.054;2023-09-19T00:49:25;12.57;;;6.43;;
75890;SDS011;64571;47.512;19.054;2023-09-19T00:52:28;12.98;;;6.10;;
75890;SDS011;64571;47.512;19.054;2023-09-19T00:55:30;12.07;;;5.87;;
75890;SDS011;64571;47.512;19.054;2023-09-19T00:58:35;10.30;;;6.05;;
75890;SDS011;64571;47.512;19.054;2023-09-19T01:01:39;10.75;;;6.18;;
75890;SDS011;64571;47.512;19.054;2023-09-19T01:04:42;12.63;;;5.93;;
75890;SDS011;64571;47.512;19.054;2023-09-19T01:07:45;12.00;;;6.45;;
75890;SDS011;64571;47.512;19.054;2023-09-19T01:10:55;13.23;;;5.85;;
75890;SDS011;64571;47.512;19.054;2023-09-19T01:17:14;11.95;;;6.57;;
75890;SDS011;64571;47.512;19.054;2023-09-19T01:30:18;13.32;;;5.85;;
75890;SDS011;64571;47.512;19.054;2023-09-19T01:33:24;10.50;;;6.07;;
75890;SDS011;64571;47.512;19.054;2023-09-19T01:36:29;12.17;;;6.53;;
75890;SDS011;64571;47.512;19.054;2023-09-19T01:39:38;12.25;;;6.78;;
75890;SDS011;64571;47.512;19.054;2023-09-19T01:42:41;13.27;;;6.20;;
75890;SDS011;64571;47.512;19.054;2023-09-19T01:52:04;12.80;;;6.47;;
75890;SDS011;64571;47.512;19.054;2023-09-19T01:55:15;12.27;;;6.30;;
75890;SDS011;64571;47.512;19.054;2023-09-19T01:58:34;12.73;;;6.20;;
75890;SDS011;64571;47.512;19.054;2023-09-19T02:01:42;16.55;;;6.60;;
75890;SDS011;64571;47.512;19.054;2023-09-19T02:04:48;15.80;;;7.57;;
75890;SDS011;64571;47.512;19.054;2023-09-19T02:07:51;16.27;;;7.70;;
75890;SDS011;64571;47.512;19.054;2023-09-19T02:10:55;13.60;;;7.43;;
75890;SDS011;64571;47.512;19.054;2023-09-19T02:13:57;17.08;;;7.30;;
75890;SDS011;64571;47.512;19.054;2023-09-19T02:17:02;13.45;;;6.72;;
75890;SDS011;64571;47.512;19.054;2023-09-19T02:20:14;16.33;;;7.30;;
75890;SDS011;64571;47.512;19.054;2023-09-19T02:23:17;13.60;;;7.03;;
75890;SDS011;64571;47.512;19.054;2023-09-19T02:26:21;14.00;;;7.68;;
75890;SDS011;64571;47.512;19.054;2023-09-19T02:29:24;18.12;;;7.72;;
75890;SDS011;64571;47.512;19.054;2023-09-19T02:32:26;15.63;;;8.00;;
75890;SDS011;64571;47.512;19.054;2023-09-19T02:35:30;13.27;;;7.72;;
75890;SDS011;64571;47.512;19.054;2023-09-19T02:38:37;15.10;;;7.40;;
75890;SDS011;64571;47.512;19.054;2023-09-19T02:41:40;13.32;;;6.90;;
75890;SDS011;64571;47.512;19.054;2023-09-19T02:44:45;16.60;;;7.87;;
75890;SDS011;64571;47.512;19.054;2023-09-19T02:47:49;15.15;;;7.87;;
75890;SDS011;64571;47.512;19.054;2023-09-19T02:50:52;17.05;;;7.95;;
75890;SDS011;64571;47.512;19.054;2023-09-19T02:53:54;12.93;;;7.40;;
75890;SDS011;64571;47.512;19.054;2023-09-19T02:56:57;17.55;;;7.70;;
75890;SDS011;64571;47.512;19.054;2023-09-19T03:00:01;16.40;;;8.20;;
75890;SDS011;64571;47.512;19.054;2023-09-19T03:03:04;14.45;;;7.57;;
75890;SDS011;64571;47.512;19.054;2023-09-19T03:06:08;15.10;;;7.20;;
75890;SDS011;64571;47.512;19.054;2023-09-19T03:09:11;15.33;;;7.60;;
75890;SDS011;64571;47.512;19.054;2023-09-19T03:12:14;13.00;;;7.75;;
75890;SDS011;64571;47.512;19.054;2023-09-19T03:15:18;16.27;;;7.85;;
75890;SDS011;64571;47.512;19.054;2023-09-19T03:18:22;13.23;;;7.78;;
75890;SDS011;64571;47.512;19.054;2023-09-19T03:21:25;14.02;;;7.65;;
75890;SDS011;64571;47.512;19.054;2023-09-19T03:24:28;17.10;;;7.33;;
75890;SDS011;64571;47.512;19.054;2023-09-19T03:27:31;15.40;;;7.72;;
75890;SDS011;64571;47.512;19.054;2023-09-19T03:30:35;18.02;;;7.62;;
75890;SDS011;64571;47.512;19.054;2023-09-19T03:33:38;15.60;;;8.18;;
75890;SDS011;64571;47.512;19.054;2023-09-19T03:36:41;18.52;;;8.45;;
75890;SDS011;64571;47.512;19.054;2023-09-19T03:39:44;14.20;;;7.80;;
75890;SDS011;64571;47.512;19.054;2023-09-19T03:42:47;11.88;;;7.45;;
75890;SDS011;64571;47.512;19.054;2023-09-19T03:45:50;15.15;;;8.15;;
75890;SDS011;64571;47.512;19.054;2023-09-19T03:48:53;21.85;;;7.97;;
75890;SDS011;64571;47.512;19.054;2023-09-19T03:51:57;14.40;;;8.65;;
75890;SDS011;64571;47.512;19.054;2023-09-19T03:55:00;14.47;;;7.50;;
75890;SDS011;64571;47.512;19.054;2023-09-19T03:58:04;16.17;;;8.38;;
75890;SDS011;64571;47.512;19.054;2023-09-19T04:01:08;18.95;;;8.45;;
75890;SDS011;64571;47.512;19.054;2023-09-19T04:04:11;17.62;;;7.97;;
75890;SDS011;64571;47.512;19.054;2023-09-19T04:07:15;16.15;;;7.82;;
75890;SDS011;64571;47.512;19.054;2023-09-19T04:10:18;16.00;;;8.60;;
75890;SDS011;64571;47.512;19.054;2023-09-19T04:13:20;16.37;;;8.68;;
75890;SDS011;64571;47.512;19.054;2023-09-19T04:16:23;19.12;;;8.35;;
75890;SDS011;64571;47.512;19.054;2023-09-19T04:19:25;14.38;;;7.60;;
75890;SDS011;64571;47.512;19.054;2023-09-19T04:22:29;17.52;;;8.27;;
75890;SDS011;64571;47.512;19.054;2023-09-19T04:25:31;15.17;;;7.70;;
75890;SDS011;64571;47.512;19.054;2023-09-19T04:28:34;17.33;;;6.25;;
75890;SDS011;64571;47.512;19.054;2023-09-19T04:31:40;10.52;;;5.00;;
75890;SDS011;64571;47.512;19.054;2023-09-19T04:34:46;10.65;;;5.10;;
75890;SDS011;64571;47.512;19.054;2023-09-19T04:37:52;10.40;;;4.50;;
75890;SDS011;64571;47.512;19.054;2023-09-19T04:40:57;9.53;;;4.00;;
75890;SDS011;64571;47.512;19.054;2023-09-19T04:44:01;9.50;;;4.03;;
75890;SDS011;64571;47.512;19.054;2023-09-19T04:47:03;10.63;;;4.10;;
75890;SDS011;64571;47.512;19.054;2023-09-19T04:50:07;10.55;;;4.03;;
75890;SDS011;64571;47.512;19.054;2023-09-19T04:53:14;6.93;;;2.90;;
75890;SDS011;64571;47.512;19.054;2023-09-19T04:56:17;9.00;;;2.33;;
75890;SDS011;64571;47.512;19.054;2023-09-19T04:59:19;9.73;;;2.05;;
75890;SDS011;64571;47.512;19.054;2023-09-19T05:02:22;7.20;;;2.10;;
75890;SDS011;64571;47.512;19.054;2023-09-19T05:05:25;5.70;;;1.87;;
75890;SDS011;64571;47.512;19.054;2023-09-19T05:08:28;4.47;;;1.48;;
75890;SDS011;64571;47.512;19.054;2023-09-19T05:11:31;5.27;;;1.60;;
75890;SDS011;64571;47.512;19.054;2023-09-19T05:14:33;4.80;;;1.70;;
75890;SDS011;64571;47.512;19.054;2023-09-19T05:17:37;5.05;;;1.30;;
75890;SDS011;64571;47.512;19.054;2023-09-19T05:20:41;4.07;;;1.30;;
75890;SDS011;64571;47.512;19.054;2023-09-19T05:23:44;7.62;;;1.37;;
75890;SDS011;64571;47.512;19.054;2023-09-19T05:26:47;4.27;;;1.20;;
75890;SDS011;64571;47.512;19.054;2023-09-19T05:29:49;4.22;;;1.08;;
75890;SDS011;64571;47.512;19.054;2023-09-19T05:32:55;3.60;;;1.27;;
75890;SDS011;64571;47.512;19.054;2023-09-19T05:35:59;4.12;;;1.17;;
75890;SDS011;64571;47.512;19.054;2023-09-19T05:39:01;4.20;;;0.85;;
75890;SDS011;64571;47.512;19.054;2023-09-19T05:42:04;3.80;;;1.10;;
75890;SDS011;64571;47.512;19.054;2023-09-19T05:45:06;9.63;;;1.25;;
75890;SDS011;64571;47.512;19.054;2023-09-19T05:48:10;3.87;;;0.93;;
75890;SDS011;64571;47.512;19.054;2023-09-19T05:51:15;4.37;;;1.48;;
75890;SDS011;64571;47.512;19.054;2023-09-19T05:54:20;3.20;;;0.88;;
75890;SDS011;64571;47.512;19.054;2023-09-19T05:57:22;11.13;;;1.20;;
75890;SDS011;64571;47.512;19.054;2023-09-19T06:00:27;3.60;;;1.00;;
75890;SDS011;64571;47.512;19.054;2023-09-19T06:03:31;3.72;;;0.90;;
75890;SDS011;64571;47.512;19.054;2023-09-19T06:06:34;3.47;;;0.93;;
75890;SDS011;64571;47.512;19.054;2023-09-19T06:09:41;3.95;;;1.00;;
75890;SDS011;64571;47.512;19.054;2023-09-19T06:12:43;3.53;;;0.90;;
75890;SDS011;64571;47.512;19.054;2023-09-19T06:15:46;3.33;;;0.80;;
75890;SDS011;64571;47.512;19.054;2023-09-19T06:18:49;4.37;;;1.12;;
75890;SDS011;64571;47.512;19.054;2023-09-19T06:21:52;9.57;;;5.18;;
75890;SDS011;64571;47.512;19.054;2023-09-19T06:24:56;7.25;;;1.27;;
75890;SDS011;64571;47.512;19.054;2023-09-19T06:27:58;4.30;;;1.27;;
75890;SDS011;64571;47.512;19.054;2023-09-19T06:31:04;8.35;;;1.42;;
75890;SDS011;64571;47.512;19.054;2023-09-19T06:34:12;4.32;;;1.00;;
75890;SDS011;64571;47.512;19.054;2023-09-19T06:37:17;3.85;;;0.90;;
75890;SDS011;64571;47.512;19.054;2023-09-19T06:40:20;4.22;;;1.12;;
75890;SDS011;64571;47.512;19.054;2023-09-19T06:43:23;3.50;;;1.03;;
75890;SDS011;64571;47.512;19.054;2023-09-19T06:46:26;4.30;;;0.85;;
75890;SDS011;64571;47.512;19.054;2023-09-19T06:49:35;3.50;;;1.20;;
75890;SDS011;64571;47.512;19.054;2023-09-19T06:52:37;5.62;;;1.20;;
75890;SDS011;64571;47.512;19.054;2023-09-19T06:55:40;5.10;;;1.70;;
75890;SDS011;64571;47.512;19.054;2023-09-19T06:58:43;3.47;;;1.07;;
75890;SDS011;64571;47.512;19.054;2023-09-19T07:01:46;5.55;;;0.82;;
75890;SDS011;64571;47.512;19.054;2023-09-19T07:04:49;3.87;;;1.10;;
75890;SDS011;64571;47.512;19.054;2023-09-19T07:07:52;3.30;;;0.80;;
75890;SDS011;64571;47.512;19.054;2023-09-19T07:10:57;3.47;;;0.70;;
75890;SDS011;64571;47.512;19.054;2023-09-19T07:13:59;3.07;;;0.60;;
75890;SDS011;64571;47.512;19.054;2023-09-19T07:17:04;3.25;;;1.02;;
75890;SDS011;64571;47.512;19.054;2023-09-19T07:20:06;14.80;;;8.27;;
75890;SDS011;64571;47.512;19.054;2023-09-19T07:23:10;2.75;;;0.80;;
75890;SDS011;64571;47.512;19.054;2023-09-19T07:26:16;4.00;;;0.90;;
75890;SDS011;64571;47.512;19.054;2023-09-19T07:29:19;5.83;;;1.00;;
75890;SDS011;64571;47.512;19.054;2023-09-19T07:32:21;2.90;;;0.73;;
75890;SDS011;64571;47.512;19.054;2023-09-19T07:35:24;3.50;;;1.10;;
75890;SDS011;64571;47.512;19.054;2023-09-19T07:38:28;3.03;;;0.80;;
75890;SDS011;64571;47.512;19.054;2023-09-19T07:41:30;3.70;;;1.20;;
75890;SDS011;64571;47.512;19.054;2023-09-19T07:44:37;4.30;;;1.20;;
75890;SDS011;64571;47.512;19.054;2023-09-19T07:47:43;6.10;;;1.10;;
75890;SDS011;64571;47.512;19.054;2023-09-19T07:50:49;4.00;;;1.12;;
75890;SDS011;64571;47.512;19.054;2023-09-19T07:53:52;4.07;;;1.02;;
75890;SDS011;64571;47.512;19.054;2023-09-19T07:56:55;4.47;;;1.05;;
75890;SDS011;64571;47.512;19.054;2023-09-19T07:59:58;5.43;;;2.50;;
75890;SDS011;64571;47.512;19.054;2023-09-19T08:03:01;3.70;;;1.12;;
75890;SDS011;64571;47.512;19.054;2023-09-19T08:06:17;5.28;;;2.10;;
75890;SDS011;64571;47.512;19.054;2023-09-19T08:09:21;4.30;;;1.20;;
75890;SDS011;64571;47.512;19.054;2023-09-19T08:12:27;5.18;;;1.00;;
75890;SDS011;64571;47.512;19.054;2023-09-19T08:15:29;3.93;;;0.90;;
75890;SDS011;64571;47.512;19.054;2023-09-19T08:18:33;5.18;;;0.95;;
75890;SDS011;64571;47.512;19.054;2023-09-19T08:21:36;4.65;;;1.10;;
75890;SDS011;64571;47.512;19.054;2023-09-19T08:24:39;5.00;;;1.50;;
75890;SDS011;64571;47.512;19.054;2023-09-19T08:27:41;6.05;;;2.17;;
75890;SDS011;64571;47.512;19.054;2023-09-19T08:30:46;4.40;;;1.20;;
75890;SDS011;64571;47.512;19.054;2023-09-19T08:33:49;3.85;;;1.20;;
75890;SDS011;64571;47.512;19.054;2023-09-19T08:36:54;5.80;;;1.58;;
75890;SDS011;64571;47.512;19.054;2023-09-19T08:40:00;5.78;;;1.40;;
75890;SDS011;64571;47.512;19.054;2023-09-19T08:43:02;5.45;;;1.30;;
75890;SDS011;64571;47.512;19.054;2023-09-19T08:49:19;5.28;;;1.20;;
75890;SDS011;64571;47.512;19.054;2023-09-19T08:52:32;9.57;;;1.37;;
75890;SDS011;64571;47.512;19.054;2023-09-19T08:55:43;5.85;;;1.55;;
75890;SDS011;64571;47.512;19.054;2023-09-19T08:58:57;4.62;;;1.35;;
75890;SDS011;64571;47.512;19.054;2023-09-19T09:02:02;4.47;;;1.00;;
75890;SDS011;64571;47.512;19.054;2023-09-19T09:05:07;4.18;;;1.20;;
75890;SDS011;64571;47.512;19.054;2023-09-19T09:08:11;5.05;;;1.30;;
75890;SDS011;64571;47.512;19.054;2023-09-19T09:11:14;3.40;;;1.00;;
75890;SDS011;64571;47.512;19.054;2023-09-19T09:14:19;4.25;;;1.00;;
75890;SDS011;64571;47.512;19.054;2023-09-19T09:17:26;4.03;;;1.17;;
75890;SDS011;64571;47.512;19.054;2023-09-19T09:20:29;5.25;;;1.25;;
75890;SDS011;64571;47.512;19.054;2023-09-19T09:23:31;5.60;;;1.20;;
75890;SDS011;64571;47.512;19.054;2023-09-19T09:26:41;3.15;;;0.93;;
75890;SDS011;64571;47.512;19.054;2023-09-19T09:29:47;5.70;;;1.80;;
75890;SDS011;64571;47.512;19.054;2023-09-19T09:33:07;4.93;;;1.40;;
75890;SDS011;64571;47.512;19.054;2023-09-19T09:36:14;4.97;;;1.25;;
75890;SDS011;64571;47.512;19.054;2023-09-19T09:39:29;6.20;;;1.80;;
75890;SDS011;64571;47.512;19.054;2023-09-19T09:42:35;5.68;;;1.12;;
75890;SDS011;64571;47.512;19.054;2023-09-19T09:45:41;8.75;;;1.73;;
75890;SDS011;64571;47.512;19.054;2023-09-19T09:52:16;6.22;;;1.70;;
75890;SDS011;64571;47.512;19.054;2023-09-19T09:55:20;4.35;;;1.35;;
75890;SDS011;64571;47.512;19.054;2023-09-19T09:58:22;8.68;;;2.50;;
75890;SDS011;64571;47.512;19.054;2023-09-19T10:01:45;5.07;;;1.70;;
75890;SDS011;64571;47.512;19.054;2023-09-19T10:04:50;5.50;;;1.07;;
75890;SDS011;64571;47.512;19.054;2023-09-19T10:07:54;4.65;;;1.40;;
75890;SDS011;64571;47.512;19.054;2023-09-19T10:11:17;6.87;;;1.10;;
75890;SDS011;64571;47.512;19.054;2023-09-19T10:14:21;4.12;;;1.15;;
75890;SDS011;64571;47.512;19.054;2023-09-19T10:17:27;5.93;;;1.40;;
75890;SDS011;64571;47.512;19.054;2023-09-19T10:20:34;4.37;;;1.50;;
75890;SDS011;64571;47.512;19.054;2023-09-19T10:23:40;3.75;;;1.00;;
75890;SDS011;64571;47.512;19.054;2023-09-19T10:26:46;5.90;;;1.90;;
75890;SDS011;64571;47.512;19.054;2023-09-19T10:29:49;6.22;;;1.60;;
75890;SDS011;64571;47.512;19.054;2023-09-19T10:33:02;6.40;;;1.73;;
75890;SDS011;64571;47.512;19.054;2023-09-19T10:36:08;6.80;;;1.63;;
75890;SDS011;64571;47.512;19.054;2023-09-19T10:39:16;6.55;;;2.10;;
75890;SDS011;64571;47.512;19.054;2023-09-19T10:42:21;4.70;;;2.08;;
75890;SDS011;64571;47.512;19.054;2023-09-19T10:45:34;6.47;;;3.10;;
75890;SDS011;64571;47.512;19.054;2023-09-19T10:48:38;4.45;;;1.95;;
75890;SDS011;64571;47.512;19.054;2023-09-19T10:51:43;5.40;;;1.80;;
75890;SDS011;64571;47.512;19.054;2023-09-19T10:54:51;5.18;;;1.90;;
75890;SDS011;64571;47.512;19.054;2023-09-19T10:57:59;6.85;;;2.15;;
75890;SDS011;64571;47.512;19.054;2023-09-19T11:01:12;5.75;;;1.65;;
75890;SDS011;64571;47.512;19.054;2023-09-19T11:04:32;5.45;;;1.45;;
75890;SDS011;64571;47.512;19.054;2023-09-19T11:07:57;5.57;;;1.70;;
75890;SDS011;64571;47.512;19.054;2023-09-19T11:11:02;4.75;;;1.70;;
75890;SDS011;64571;47.512;19.054;2023-09-19T11:17:32;7.68;;;3.37;;
75890;SDS011;64571;47.512;19.054;2023-09-19T11:20:49;6.00;;;2.58;;
75890;SDS011;64571;47.512;19.054;2023-09-19T11:24:33;8.83;;;2.23;;
75890;SDS011;64571;47.512;19.054;2023-09-19T11:27:46;4.72;;;1.77;;
75890;SDS011;64571;47.512;19.054;2023-09-19T11:31:42;5.30;;;1.90;;
75890;SDS011;64571;47.512;19.054;2023-09-19T11:34:48;6.30;;;1.67;;
75890;SDS011;64571;47.512;19.054;2023-09-19T11:44:32;5.53;;;1.48;;
75890;SDS011;64571;47.512;19.054;2023-09-19T11:47:37;3.87;;;1.27;;
75890;SDS011;64571;47.512;19.054;2023-09-19T11:50:42;6.47;;;1.60;;
75890;SDS011;64571;47.512;19.054;2023-09-19T11:53:47;4.62;;;1.40;;
75890;SDS011;64571;47.512;19.054;2023-09-19T11:56:53;6.90;;;1.40;;
75890;SDS011;64571;47.512;19.054;2023-09-19T11:59:56;5.87;;;1.67;;
75890;SDS011;64571;47.512;19.054;2023-09-19T12:03:02;4.25;;;1.30;;
75890;SDS011;64571;47.512;19.054;2023-09-19T12:06:16;5.35;;;1.70;;
75890;SDS011;64571;47.512;19.054;2023-09-19T12:09:19;5.78;;;1.90;;
75890;SDS011;64571;47.512;19.054;2023-09-19T12:12:24;4.87;;;1.50;;
75890;SDS011;64571;47.512;19.054;2023-09-19T12:15:29;5.00;;;1.37;;
75890;SDS011;64571;47.512;19.054;2023-09-19T12:18:37;4.40;;;1.67;;
75890;SDS011;64571;47.512;19.054;2023-09-19T12:21:41;6.40;;;1.40;;
75890;SDS011;64571;47.512;19.054;2023-09-19T12:24:44;6.00;;;1.85;;
75890;SDS011;64571;47.512;19.054;2023-09-19T12:27:48;4.30;;;1.40;;
75890;SDS011;64571;47.512;19.054;2023-09-19T12:30:55;4.12;;;1.70;;
75890;SDS011;64571;47.512;19.054;2023-09-19T12:33:59;5.20;;;2.20;;
75890;SDS011;64571;47.512;19.054;2023-09-19T12:40:30;5.75;;;2.40;;
75890;SDS011;64571;47.512;19.054;2023-09-19T12:43:36;4.37;;;2.10;;
75890;SDS011;64571;47.512;19.054;2023-09-19T12:46:39;6.40;;;2.10;;
75890;SDS011;64571;47.512;19.054;2023-09-19T12:53:24;6.53;;;2.20;;
75890;SDS011;64571;47.512;19.054;2023-09-19T12:56:39;5.20;;;2.20;;
75890;SDS011;64571;47.512;19.054;2023-09-19T12:59:52;5.70;;;2.27;;
75890;SDS011;64571;47.512;19.054;2023-09-19T13:06:34;8.40;;;1.90;;
75890;SDS011;64571;47.512;19.054;2023-09-19T13:10:01;5.43;;;1.90;;
75890;SDS011;64571;47.512;19.054;2023-09-19T13:13:22;4.57;;;2.08;;
75890;SDS011;64571;47.512;19.054;2023-09-19T13:16:30;4.90;;;2.10;;
75890;SDS011;64571;47.512;19.054;2023-09-19T13:19:37;7.12;;;2.00;;
75890;SDS011;64571;47.512;19.054;2023-09-19T13:22:43;6.40;;;2.30;;
75890;SDS011;64571;47.512;19.054;2023-09-19T13:25:51;5.87;;;2.20;;
75890;SDS011;64571;47.512;19.054;2023-09-19T13:28:54;5.53;;;1.95;;
75890;SDS011;64571;47.512;19.054;2023-09-19T13:31:57;4.60;;;2.10;;
75890;SDS011;64571;47.512;19.054;2023-09-19T13:34:59;5.40;;;1.87;;
75890;SDS011;64571;47.512;19.054;2023-09-19T13:38:02;5.68;;;1.92;;
75890;SDS011;64571;47.512;19.054;2023-09-19T13:41:05;5.05;;;2.20;;
75890;SDS011;64571;47.512;19.054;2023-09-19T13:44:08;5.65;;;2.30;;
75890;SDS011;64571;47.512;19.054;2023-09-19T13:47:13;8.23;;;2.30;;
75890;SDS011;64571;47.512;19.054;2023-09-19T13:50:17;5.70;;;2.15;;
75890;SDS011;64571;47.512;19.054;2023-09-19T13:53:26;5.93;;;2.20;;
75890;SDS011;64571;47.512;19.054;2023-09-19T13:56:28;5.50;;;2.30;;
75890;SDS011;64571;47.512;19.054;2023-09-19T13:59:32;6.35;;;2.70;;
75890;SDS011;64571;47.512;19.054;2023-09-19T14:02:35;5.07;;;1.93;;
75890;SDS011;64571;47.512;19.054;2023-09-19T14:05:38;6.85;;;2.40;;
75890;SDS011;64571;47.512;19.054;2023-09-19T14:08:40;6.72;;;2.90;;
75890;SDS011;64571;47.512;19.054;2023-09-19T14:11:43;5.40;;;2.47;;
75890;SDS011;64571;47.512;19.054;2023-09-19T14:14:49;5.20;;;1.87;;
75890;SDS011;64571;47.512;19.054;2023-09-19T14:17:53;4.93;;;1.97;;
75890;SDS011;64571;47.512;19.054;2023-09-19T14:20:57;5.57;;;2.33;;
75890;SDS011;64571;47.512;19.054;2023-09-19T14:23:59;5.57;;;1.77;;
75890;SDS011;64571;47.512;19.054;2023-09-19T14:27:02;4.65;;;2.00;;
75890;SDS011;64571;47.512;19.054;2023-09-19T14:30:06;6.68;;;2.40;;
75890;SDS011;64571;47.512;19.054;2023-09-19T14:33:09;9.23;;;2.27;;
75890;SDS011;64571;47.512;19.054;2023-09-19T14:36:12;6.62;;;2.42;;
75890;SDS011;64571;47.512;19.054;2023-09-19T14:39:15;7.55;;;3.17;;
75890;SDS011;64571;47.512;19.054;2023-09-19T14:42:18;11.68;;;2.20;;
75890;SDS011;64571;47.512;19.054;2023-09-19T14:45:20;5.95;;;2.35;;
75890;SDS011;64571;47.512;19.054;2023-09-19T14:48:24;4.00;;;1.90;;
75890;SDS011;64571;47.512;19.054;2023-09-19T14:51:29;5.75;;;2.28;;
75890;SDS011;64571;47.512;19.054;2023-09-19T14:54:32;8.00;;;2.30;;
75890;SDS011;64571;47.512;19.054;2023-09-19T14:57:35;5.25;;;2.05;;
75890;SDS011;64571;47.512;19.054;2023-09-19T15:00:42;6.10;;;2.00;;
75890;SDS011;64571;47.512;19.054;2023-09-19T15:03:47;5.17;;;2.00;;
75890;SDS011;64571;47.512;19.054;2023-09-19T15:06:52;4.35;;;1.42;;
75890;SDS011;64571;47.512;19.054;2023-09-19T15:09:57;5.95;;;1.95;;
75890;SDS011;64571;47.512;19.054;2023-09-19T15:13:00;4.65;;;2.00;;
75890;SDS011;64571;47.512;19.054;2023-09-19T15:16:03;4.60;;;1.80;;
75890;SDS011;64571;47.512;19.054;2023-09-19T15:19:11;5.23;;;1.87;;
75890;SDS011;64571;47.512;19.054;2023-09-19T15:22:14;7.12;;;1.90;;
75890;SDS011;64571;47.512;19.054;2023-09-19T15:25:16;6.85;;;1.92;;
75890;SDS011;64571;47.512;19.054;2023-09-19T15:28:19;4.85;;;1.77;;
75890;SDS011;64571;47.512;19.054;2023-09-19T15:31:25;5.87;;;1.95;;
75890;SDS011;64571;47.512;19.054;2023-09-19T15:34:28;5.70;;;2.10;;
75890;SDS011;64571;47.512;19.054;2023-09-19T15:37:32;4.30;;;1.70;;
75890;SDS011;64571;47.512;19.054;2023-09-19T15:40:34;4.85;;;2.00;;
75890;SDS011;64571;47.512;19.054;2023-09-19T15:43:37;5.32;;;1.90;;
75890;SDS011;64571;47.512;19.054;2023-09-19T15:46:40;4.03;;;1.73;;
75890;SDS011;64571;47.512;19.054;2023-09-19T15:49:43;6.53;;;2.00;;
75890;SDS011;64571;47.512;19.054;2023-09-19T15:52:51;5.80;;;2.12;;
75890;SDS011;64571;47.512;19.054;2023-09-19T15:55:57;5.45;;;2.08;;
75890;SDS011;64571;47.512;19.054;2023-09-19T15:58:59;6.87;;;1.60;;
75890;SDS011;64571;47.512;19.054;2023-09-19T16:02:02;5.93;;;2.30;;
75890;SDS011;64571;47.512;19.054;2023-09-19T16:05:06;6.97;;;2.33;;
75890;SDS011;64571;47.512;19.054;2023-09-19T16:08:09;8.57;;;2.90;;
75890;SDS011;64571;47.512;19.054;2023-09-19T16:11:12;6.43;;;2.33;;
75890;SDS011;64571;47.512;19.054;2023-09-19T16:14:15;5.82;;;2.70;;
75890;SDS011;64571;47.512;19.054;2023-09-19T16:17:19;6.43;;;2.20;;
75890;SDS011;64571;47.512;19.054;2023-09-19T16:20:22;8.03;;;1.80;;
75890;SDS011;64571;47.512;19.054;2023-09-19T16:23:25;6.65;;;2.03;;
75890;SDS011;64571;47.512;19.054;2023-09-19T16:26:28;4.82;;;2.30;;
75890;SDS011;64571;47.512;19.054;2023-09-19T16:29:31;6.25;;;1.87;;
75890;SDS011;64571;47.512;19.054;2023-09-19T16:32:35;5.32;;;2.03;;
75890;SDS011;64571;47.512;19.054;2023-09-19T16:35:38;6.33;;;2.23;;
75890;SDS011;64571;47.512;19.054;2023-09-19T16:38:41;4.60;;;2.00;;
75890;SDS011;64571;47.512;19.054;2023-09-19T16:41:45;6.82;;;2.30;;
75890;SDS011;64571;47.512;19.054;2023-09-19T16:44:48;5.95;;;2.37;;
75890;SDS011;64571;47.512;19.054;2023-09-19T16:47:51;6.55;;;3.00;;
75890;SDS011;64571;47.512;19.054;2023-09-19T16:50:54;4.93;;;1.87;;
75890;SDS011;64571;47.512;19.054;2023-09-19T16:54:01;6.62;;;3.00;;
75890;SDS011;64571;47.512;19.054;2023-09-19T16:57:04;11.77;;;2.65;;
75890;SDS011;64571;47.512;19.054;2023-09-19T17:00:07;11.20;;;3.00;;
75890;SDS011;64571;47.512;19.054;2023-09-19T17:03:12;5.82;;;2.83;;
75890;SDS011;64571;47.512;19.054;2023-09-19T17:06:16;6.77;;;2.80;;
75890;SDS011;64571;47.512;19.054;2023-09-19T17:09:20;6.32;;;2.70;;
75890;SDS011;64571;47.512;19.054;2023-09-19T17:12:23;7.53;;;2.78;;
75890;SDS011;64571;47.512;19.054;2023-09-19T17:15:25;7.78;;;3.00;;
75890;SDS011;64571;47.512;19.054;2023-09-19T17:18:28;9.65;;;2.72;;
75890;SDS011;64571;47.512;19.054;2023-09-19T17:21:33;6.67;;;2.90;;
75890;SDS011;64571;47.512;19.054;2023-09-19T17:24:36;5.95;;;2.45;;
75890;SDS011;64571;47.512;19.054;2023-09-19T17:27:38;8.10;;;3.22;;
75890;SDS011;64571;47.512;19.054;2023-09-19T17:30:41;9.27;;;4.85;;
75890;SDS011;64571;47.512;19.054;2023-09-19T17:33:44;6.03;;;3.03;;
75890;SDS011;64571;47.512;19.054;2023-09-19T17:36:49;6.20;;;2.87;;
75890;SDS011;64571;47.512;19.054;2023-09-19T17:39:51;7.30;;;2.67;;
75890;SDS011;64571;47.512;19.054;2023-09-19T17:42:54;6.90;;;2.70;;
75890;SDS011;64571;47.512;19.054;2023-09-19T17:46:11;7.05;;;2.53;;
75890;SDS011;64571;47.512;19.054;2023-09-19T17:49:16;6.93;;;2.58;;
75890;SDS011;64571;47.512;19.054;2023-09-19T17:52:19;7.17;;;2.87;;
75890;SDS011;64571;47.512;19.054;2023-09-19T17:55:22;7.95;;;2.80;;
75890;SDS011;64571;47.512;19.054;2023-09-19T17:58:25;11.12;;;6.22;;
75890;SDS011;64571;47.512;19.054;2023-09-19T18:01:28;8.40;;;3.30;;
75890;SDS011;64571;47.512;19.054;2023-09-19T18:04:32;8.32;;;3.55;;
75890;SDS011;64571;47.512;19.054;2023-09-19T18:07:34;32.20;;;19.57;;
75890;SDS011;64571;47.512;19.054;2023-09-19T18:10:37;9.60;;;3.37;;
75890;SDS011;64571;47.512;19.054;2023-09-19T18:13:41;7.18;;;2.70;;
75890;SDS011;64571;47.512;19.054;2023-09-19T18:16:45;9.32;;;3.70;;
75890;SDS011;64571;47.512;19.054;2023-09-19T18:19:48;6.05;;;3.12;;
75890;SDS011;64571;47.512;19.054;2023-09-19T18:22:53;6.87;;;2.60;;
75890;SDS011;64571;47.512;19.054;2023-09-19T18:25:56;7.78;;;2.80;;
75890;SDS011;64571;47.512;19.054;2023-09-19T18:29:00;9.10;;;3.17;;
75890;SDS011;64571;47.512;19.054;2023-09-19T18:32:02;5.60;;;2.45;;
75890;SDS011;64571;47.512;19.054;2023-09-19T18:35:05;6.53;;;2.72;;
75890;SDS011;64571;47.512;19.054;2023-09-19T18:38:09;7.13;;;3.17;;
75890;SDS011;64571;47.512;19.054;2023-09-19T18:41:12;8.00;;;3.95;;
75890;SDS011;64571;47.512;19.054;2023-09-19T18:44:16;10.00;;;3.62;;
75890;SDS011;64571;47.512;19.054;2023-09-19T18:47:19;8.48;;;3.00;;
75890;SDS011;64571;47.512;19.054;2023-09-19T18:50:25;6.85;;;2.60;;
75890;SDS011;64571;47.512;19.054;2023-09-19T18:53:28;7.77;;;3.00;;
75890;SDS011;64571;47.512;19.054;2023-09-19T18:56:30;8.00;;;3.37;;
75890;SDS011;64571;47.512;19.054;2023-09-19T18:59:34;6.55;;;2.58;;